sensor_id;sensor_type;location;lat;lon;timestamp;pressure;altitude;pressure_sealevel;temperature;humidity
68230;BME280;55048;52.220;5.160;2022-08-14T00:01:53;101125.59;;;24.13;48.63
68230;BME280;55048;52.220;5.160;2022-08-14T00:04:19;101119.03;;;24.14;48.93
68230;BME280;55048;52.220;5.160;2022-08-14T00:06:44;101134.25;;;24.15;49.05
68230;BME280;55048;52.220;5.160;2022-08-14T00:09:10;101121.63;;;24.11;48.88
68230;BME280;55048;52.220;5.160;2022-08-14T00:11:35;101084.84;;;23.87;48.89
68230;BME280;55048;52.220;5.160;2022-08-14T00:14:01;101091.91;;;23.97;49.32
68230;BME280;55048;52.220;5.160;2022-08-14T00:16:28;101024.91;;;23.58;49.30
68230;BME280;55048;52.220;5.160;2022-08-14T00:18:53;101104.53;;;24.02;49.23
68230;BME280;55048;52.220;5.160;2022-08-14T00:21:19;101112.16;;;24.08;49.29
68230;BME280;55048;52.220;5.160;2022-08-14T00:23:44;101108.50;;;24.04;49.22
68230;BME280;55048;52.220;5.160;2022-08-14T00:26:09;101100.69;;;24.03;49.35
68230;BME280;55048;52.220;5.160;2022-08-14T00:28:35;101089.81;;;23.94;48.93
68230;BME280;55048;52.220;5.160;2022-08-14T00:31:00;101116.47;;;24.09;49.17
68230;BME280;55048;52.220;5.160;2022-08-14T00:33:27;101110.88;;;24.06;49.04
68230;BME280;55048;52.220;5.160;2022-08-14T00:35:53;101107.69;;;24.04;49.25
68230;BME280;55048;52.220;5.160;2022-08-14T00:38:19;101104.53;;;24.02;49.35
68230;BME280;55048;52.220;5.160;2022-08-14T00:40:45;101073.50;;;23.85;49.68
68230;BME280;55048;52.220;5.160;2022-08-14T00:43:11;101083.91;;;23.83;49.58
68230;BME280;55048;52.220;5.160;2022-08-14T00:45:36;101019.34;;;23.46;49.67
68230;BME280;55048;52.220;5.160;2022-08-14T00:48:02;101095.41;;;23.89;49.41
68230;BME280;55048;52.220;5.160;2022-08-14T00:50:29;101015.50;;;23.38;49.65
68230;BME280;55048;52.220;5.160;2022-08-14T00:52:56;101045.66;;;23.54;49.52
68230;BME280;55048;52.220;5.160;2022-08-14T00:55:22;101058.13;;;23.63;50.10
68230;BME280;55048;52.220;5.160;2022-08-14T00:57:48;101054.34;;;23.64;49.98
68230;BME280;55048;52.220;5.160;2022-08-14T01:00:32;101057.06;;;23.64;50.00
68230;BME280;55048;52.220;5.160;2022-08-14T01:02:59;101051.59;;;23.56;50.17
68230;BME280;55048;52.220;5.160;2022-08-14T01:05:25;101049.03;;;23.51;50.31
68230;BME280;55048;52.220;5.160;2022-08-14T01:07:51;101066.81;;;23.65;50.49
68230;BME280;55048;52.220;5.160;2022-08-14T01:10:19;101051.09;;;23.54;50.39
68230;BME280;55048;52.220;5.160;2022-08-14T01:12:45;101049.34;;;23.49;50.86
68230;BME280;55048;52.220;5.160;2022-08-14T01:15:13;101046.97;;;23.48;50.38
68230;BME280;55048;52.220;5.160;2022-08-14T01:17:41;101057.97;;;23.51;50.59
68230;BME280;55048;52.220;5.160;2022-08-14T01:20:25;101058.59;;;23.48;50.64
68230;BME280;55048;52.220;5.160;2022-08-14T01:23:13;101010.81;;;23.12;50.81
68230;BME280;55048;52.220;5.160;2022-08-14T01:25:39;101013.53;;;23.21;50.58
68230;BME280;55048;52.220;5.160;2022-08-14T01:28:06;101049.66;;;23.39;50.75
68230;BME280;55048;52.220;5.160;2022-08-14T01:30:33;101035.28;;;23.30;50.88
68230;BME280;55048;52.220;5.160;2022-08-14T01:33:03;101043.41;;;23.30;51.00
68230;BME280;55048;52.220;5.160;2022-08-14T01:35:29;101021.84;;;23.16;51.36
68230;BME280;55048;52.220;5.160;2022-08-14T01:37:56;100999.47;;;23.02;51.00
68230;BME280;55048;52.220;5.160;2022-08-14T01:40:26;101014.66;;;23.11;51.06
68230;BME280;55048;52.220;5.160;2022-08-14T01:42:54;101008.41;;;23.02;51.42
68230;BME280;55048;52.220;5.160;2022-08-14T01:45:20;101006.81;;;23.01;51.38
68230;BME280;55048;52.220;5.160;2022-08-14T01:47:45;100996.56;;;22.89;51.37
68230;BME280;55048;52.220;5.160;2022-08-14T01:50:10;100996.28;;;22.91;51.36
68230;BME280;55048;52.220;5.160;2022-08-14T01:52:37;101012.25;;;23.01;51.30
68230;BME280;55048;52.220;5.160;2022-08-14T01:55:05;101025.31;;;23.08;51.36
68230;BME280;55048;52.220;5.160;2022-08-14T01:57:34;101020.38;;;23.01;51.69
68230;BME280;55048;52.220;5.160;2022-08-14T02:00:04;101007.59;;;22.93;51.46
68230;BME280;55048;52.220;5.160;2022-08-14T02:02:30;101010.66;;;23.00;51.80
68230;BME280;55048;52.220;5.160;2022-08-14T02:04:56;100980.41;;;22.84;51.89
68230;BME280;55048;52.220;5.160;2022-08-14T02:07:21;100994.94;;;22.88;52.00
68230;BME280;55048;52.220;5.160;2022-08-14T02:09:47;100918.28;;;22.39;51.88
68230;BME280;55048;52.220;5.160;2022-08-14T02:12:12;100998.31;;;22.85;52.12
68230;BME280;55048;52.220;5.160;2022-08-14T02:14:38;100982.31;;;22.75;52.04
68230;BME280;55048;52.220;5.160;2022-08-14T02:17:04;101000.38;;;22.88;52.04
68230;BME280;55048;52.220;5.160;2022-08-14T02:19:34;100997.97;;;22.87;52.47
68230;BME280;55048;52.220;5.160;2022-08-14T02:22:00;100992.84;;;22.77;52.25
68230;BME280;55048;52.220;5.160;2022-08-14T02:24:27;100998.94;;;22.82;52.45
68230;BME280;55048;52.220;5.160;2022-08-14T02:26:54;100981.19;;;22.67;52.49
68230;BME280;55048;52.220;5.160;2022-08-14T02:29:25;101003.69;;;22.77;52.84
68230;BME280;55048;52.220;5.160;2022-08-14T02:31:54;101004.81;;;22.76;53.03
68230;BME280;55048;52.220;5.160;2022-08-14T02:34:23;100988.66;;;22.62;53.00
68230;BME280;55048;52.220;5.160;2022-08-14T02:36:56;100973.16;;;22.54;52.90
68230;BME280;55048;52.220;5.160;2022-08-14T02:39:24;100939.13;;;22.30;53.01
68230;BME280;55048;52.220;5.160;2022-08-14T02:41:50;100979.38;;;22.54;53.15
68230;BME280;55048;52.220;5.160;2022-08-14T02:44:17;100996.66;;;22.67;53.21
68230;BME280;55048;52.220;5.160;2022-08-14T02:46:48;100995.31;;;22.56;53.38
68230;BME280;55048;52.220;5.160;2022-08-14T02:49:14;100991.94;;;22.50;53.40
68230;BME280;55048;52.220;5.160;2022-08-14T02:51:40;100992.28;;;22.49;53.68
68230;BME280;55048;52.220;5.160;2022-08-14T02:54:07;100998.16;;;22.51;54.13
68230;BME280;55048;52.220;5.160;2022-08-14T02:56:34;100991.63;;;22.43;54.09
68230;BME280;55048;52.220;5.160;2022-08-14T02:59:03;100976.91;;;22.35;53.95
68230;BME280;55048;52.220;5.160;2022-08-14T03:01:31;100988.72;;;22.39;53.74
68230;BME280;55048;52.220;5.160;2022-08-14T03:03:57;100990.31;;;22.40;54.06
68230;BME280;55048;52.220;5.160;2022-08-14T03:06:23;100943.16;;;22.10;54.43
68230;BME280;55048;52.220;5.160;2022-08-14T03:08:51;100981.53;;;22.35;54.38
68230;BME280;55048;52.220;5.160;2022-08-14T03:11:17;100964.06;;;22.19;54.54
68230;BME280;55048;52.220;5.160;2022-08-14T03:13:45;100985.19;;;22.30;54.63
68230;BME280;55048;52.220;5.160;2022-08-14T03:16:13;100958.97;;;22.17;54.57
68230;BME280;55048;52.220;5.160;2022-08-14T03:18:40;100971.09;;;22.20;54.47
68230;BME280;55048;52.220;5.160;2022-08-14T03:21:07;100960.69;;;22.13;54.63
68230;BME280;55048;52.220;5.160;2022-08-14T03:23:34;100946.41;;;21.99;55.01
68230;BME280;55048;52.220;5.160;2022-08-14T03:26:00;100965.63;;;22.11;54.96
68230;BME280;55048;52.220;5.160;2022-08-14T03:28:28;100970.22;;;22.10;55.27
68230;BME280;55048;52.220;5.160;2022-08-14T03:30:55;100959.81;;;22.04;55.18
68230;BME280;55048;52.220;5.160;2022-08-14T03:33:21;100960.63;;;22.04;55.16
68230;BME280;55048;52.220;5.160;2022-08-14T03:35:47;100965.91;;;22.09;55.35
68230;BME280;55048;52.220;5.160;2022-08-14T03:38:13;100956.13;;;22.00;55.56
68230;BME280;55048;52.220;5.160;2022-08-14T03:40:41;100945.09;;;21.87;55.52
68230;BME280;55048;52.220;5.160;2022-08-14T03:43:08;100951.47;;;21.91;55.76
68230;BME280;55048;52.220;5.160;2022-08-14T03:45:35;100966.50;;;21.98;55.41
68230;BME280;55048;52.220;5.160;2022-08-14T03:48:13;100959.59;;;21.91;55.86
68230;BME280;55048;52.220;5.160;2022-08-14T03:50:41;100945.38;;;21.86;55.70
68230;BME280;55048;52.220;5.160;2022-08-14T03:53:09;100957.19;;;21.90;55.47
68230;BME280;55048;52.220;5.160;2022-08-14T03:55:34;100962.00;;;21.93;55.69
68230;BME280;55048;52.220;5.160;2022-08-14T03:58:01;100955.13;;;21.87;55.73
68230;BME280;55048;52.220;5.160;2022-08-14T04:00:26;100950.31;;;21.84;55.53
68230;BME280;55048;52.220;5.160;2022-08-14T04:02:53;100929.22;;;21.72;55.77
68230;BME280;55048;52.220;5.160;2022-08-14T04:05:19;100956.22;;;21.86;55.95
68230;BME280;55048;52.220;5.160;2022-08-14T04:07:45;100946.63;;;21.80;55.75
68230;BME280;55048;52.220;5.160;2022-08-14T04:10:11;100964.19;;;21.82;55.96
68230;BME280;55048;52.220;5.160;2022-08-14T04:12:36;100955.66;;;21.75;56.40
68230;BME280;55048;52.220;5.160;2022-08-14T04:15:02;100938.75;;;21.70;56.33
68230;BME280;55048;52.220;5.160;2022-08-14T04:17:28;100928.59;;;21.53;56.32
68230;BME280;55048;52.220;5.160;2022-08-14T04:19:54;100958.97;;;21.72;56.83
68230;BME280;55048;52.220;5.160;2022-08-14T04:22:19;100950.50;;;21.65;56.53
68230;BME280;55048;52.220;5.160;2022-08-14T04:24:46;100935.00;;;21.57;56.53
68230;BME280;55048;52.220;5.160;2022-08-14T04:27:11;100934.56;;;21.63;56.96
68230;BME280;55048;52.220;5.160;2022-08-14T04:29:41;100950.50;;;21.65;57.10
68230;BME280;55048;52.220;5.160;2022-08-14T04:32:08;100937.59;;;21.62;56.78
68230;BME280;55048;52.220;5.160;2022-08-14T04:34:35;100932.97;;;21.62;56.58
68230;BME280;55048;52.220;5.160;2022-08-14T04:37:05;100932.69;;;21.64;56.65
68230;BME280;55048;52.220;5.160;2022-08-14T04:39:49;100931.03;;;21.54;56.76
68230;BME280;55048;52.220;5.160;2022-08-14T04:42:34;100942.19;;;21.61;56.96
68230;BME280;55048;52.220;5.160;2022-08-14T04:45:20;100924.63;;;21.50;57.20
68230;BME280;55048;52.220;5.160;2022-08-14T04:47:47;100936.59;;;21.58;57.22
68230;BME280;55048;52.220;5.160;2022-08-14T04:50:31;100936.44;;;21.54;57.44
68230;BME280;55048;52.220;5.160;2022-08-14T04:52:57;100946.44;;;21.54;57.26
68230;BME280;55048;52.220;5.160;2022-08-14T04:55:22;100930.75;;;21.42;57.45
68230;BME280;55048;52.220;5.160;2022-08-14T04:57:47;100921.06;;;21.41;57.66
68230;BME280;55048;52.220;5.160;2022-08-14T05:00:13;100924.56;;;21.42;57.80
68230;BME280;55048;52.220;5.160;2022-08-14T05:02:38;100941.66;;;21.51;57.98
68230;BME280;55048;52.220;5.160;2022-08-14T05:05:04;100926.94;;;21.43;57.71
68230;BME280;55048;52.220;5.160;2022-08-14T05:07:30;100928.72;;;21.48;57.94
68230;BME280;55048;52.220;5.160;2022-08-14T05:09:55;100935.59;;;21.54;57.83
68230;BME280;55048;52.220;5.160;2022-08-14T05:12:21;100926.22;;;21.51;57.56
68230;BME280;55048;52.220;5.160;2022-08-14T05:14:47;100926.41;;;21.55;57.55
68230;BME280;55048;52.220;5.160;2022-08-14T05:17:12;100902.13;;;21.41;57.96
68230;BME280;55048;52.220;5.160;2022-08-14T05:19:38;100913.97;;;21.54;57.46
68230;BME280;55048;52.220;5.160;2022-08-14T05:22:03;100918.09;;;21.51;57.60
68230;BME280;55048;52.220;5.160;2022-08-14T05:24:29;100919.88;;;21.56;57.68
68230;BME280;55048;52.220;5.160;2022-08-14T05:26:55;100903.59;;;21.47;57.82
68230;BME280;55048;52.220;5.160;2022-08-14T05:29:20;100899.47;;;21.50;58.14
68230;BME280;55048;52.220;5.160;2022-08-14T05:31:46;100911.44;;;21.57;57.81
68230;BME280;55048;52.220;5.160;2022-08-14T05:34:11;100915.13;;;21.61;57.72
68230;BME280;55048;52.220;5.160;2022-08-14T05:36:36;100913.41;;;21.65;58.01
68230;BME280;55048;52.220;5.160;2022-08-14T05:39:03;100904.78;;;21.63;58.11
68230;BME280;55048;52.220;5.160;2022-08-14T05:41:28;100914.09;;;21.71;57.73
68230;BME280;55048;52.220;5.160;2022-08-14T05:43:54;100904.00;;;21.63;57.96
68230;BME280;55048;52.220;5.160;2022-08-14T05:46:19;100903.19;;;21.62;57.87
68230;BME280;55048;52.220;5.160;2022-08-14T05:48:53;100912.97;;;21.72;57.96
68230;BME280;55048;52.220;5.160;2022-08-14T05:51:21;100902.66;;;21.74;57.95
68230;BME280;55048;52.220;5.160;2022-08-14T05:53:47;100907.59;;;21.81;58.03
68230;BME280;55048;52.220;5.160;2022-08-14T05:56:13;100900.78;;;21.83;57.83
68230;BME280;55048;52.220;5.160;2022-08-14T05:58:38;100872.50;;;21.67;57.71
68230;BME280;55048;52.220;5.160;2022-08-14T06:01:04;100881.03;;;21.83;57.59
68230;BME280;55048;52.220;5.160;2022-08-14T06:03:29;100891.13;;;22.00;57.80
68230;BME280;55048;52.220;5.160;2022-08-14T06:05:55;100911.00;;;22.18;57.16
68230;BME280;55048;52.220;5.160;2022-08-14T06:08:24;100904.91;;;22.43;56.77
68230;BME280;55048;52.220;5.160;2022-08-14T06:10:52;100897.13;;;22.67;56.35
68230;BME280;55048;52.220;5.160;2022-08-14T06:13:21;100873.72;;;22.80;55.53
68230;BME280;55048;52.220;5.160;2022-08-14T06:15:48;100888.09;;;23.15;54.81
68230;BME280;55048;52.220;5.160;2022-08-14T06:18:16;100895.75;;;23.48;54.33
68230;BME280;55048;52.220;5.160;2022-08-14T06:20:42;100895.41;;;23.76;53.70
68230;BME280;55048;52.220;5.160;2022-08-14T06:23:08;100901.09;;;23.91;53.24
68230;BME280;55048;52.220;5.160;2022-08-14T06:25:34;100896.59;;;23.96;53.03
68230;BME280;55048;52.220;5.160;2022-08-14T06:27:59;100881.91;;;23.97;52.93
68230;BME280;55048;52.220;5.160;2022-08-14T06:30:27;100877.91;;;24.03;52.50
68230;BME280;55048;52.220;5.160;2022-08-14T06:32:53;100887.78;;;24.07;52.50
68230;BME280;55048;52.220;5.160;2022-08-14T06:35:19;100898.56;;;24.25;52.50
68230;BME280;55048;52.220;5.160;2022-08-14T06:40:19;100900.94;;;24.43;52.09
68230;BME280;55048;52.220;5.160;2022-08-14T06:42:45;100885.41;;;24.35;51.82
68230;BME280;55048;52.220;5.160;2022-08-14T06:45:11;100910.47;;;24.50;51.90
68230;BME280;55048;52.220;5.160;2022-08-14T06:47:39;100904.84;;;24.55;51.89
68230;BME280;55048;52.220;5.160;2022-08-14T06:50:10;100892.44;;;24.45;52.31
68230;BME280;55048;52.220;5.160;2022-08-14T06:52:36;100873.06;;;24.47;51.87
68230;BME280;55048;52.220;5.160;2022-08-14T06:55:06;100913.03;;;24.76;51.69
68230;BME280;55048;52.220;5.160;2022-08-14T06:57:43;100901.69;;;24.74;51.25
68230;BME280;55048;52.220;5.160;2022-08-14T07:00:24;100906.75;;;24.84;51.25
68230;BME280;55048;52.220;5.160;2022-08-14T07:02:50;100892.00;;;24.85;51.08
68230;BME280;55048;52.220;5.160;2022-08-14T07:05:34;100884.63;;;24.85;51.13
68230;BME280;55048;52.220;5.160;2022-08-14T07:08:18;100873.69;;;24.94;50.64
68230;BME280;55048;52.220;5.160;2022-08-14T07:10:46;100892.44;;;25.16;50.59
68230;BME280;55048;52.220;5.160;2022-08-14T07:13:12;100884.75;;;25.18;50.49
68230;BME280;55048;52.220;5.160;2022-08-14T07:15:39;100848.97;;;25.08;50.14
68230;BME280;55048;52.220;5.160;2022-08-14T07:18:07;100889.00;;;25.40;50.35
68230;BME280;55048;52.220;5.160;2022-08-14T07:20:34;100857.69;;;25.34;49.86
68230;BME280;55048;52.220;5.160;2022-08-14T07:23:01;100871.94;;;25.52;49.56
68230;BME280;55048;52.220;5.160;2022-08-14T07:25:26;100850.69;;;25.45;49.64
68230;BME280;55048;52.220;5.160;2022-08-14T07:27:53;100821.19;;;25.48;49.19
68230;BME280;55048;52.220;5.160;2022-08-14T07:30:19;100882.25;;;26.04;48.94
68230;BME280;55048;52.220;5.160;2022-08-14T07:32:44;100867.84;;;26.04;48.58
68230;BME280;55048;52.220;5.160;2022-08-14T07:35:10;100882.00;;;26.34;48.20
68230;BME280;55048;52.220;5.160;2022-08-14T07:37:36;100837.19;;;26.07;47.84
68230;BME280;55048;52.220;5.160;2022-08-14T07:40:03;100871.50;;;26.44;47.62
68230;BME280;55048;52.220;5.160;2022-08-14T07:42:29;100868.84;;;26.60;47.15
68230;BME280;55048;52.220;5.160;2022-08-14T07:44:55;100840.78;;;26.60;47.14
68230;BME280;55048;52.220;5.160;2022-08-14T07:47:21;100854.84;;;26.74;46.45
68230;BME280;55048;52.220;5.160;2022-08-14T07:50:03;100859.44;;;26.86;46.78
68230;BME280;55048;52.220;5.160;2022-08-14T07:52:29;100870.97;;;27.07;46.42
68230;BME280;55048;52.220;5.160;2022-08-14T07:54:55;100835.09;;;26.93;45.58
68230;BME280;55048;52.220;5.160;2022-08-14T07:57:21;100856.16;;;27.20;45.22
68230;BME280;55048;52.220;5.160;2022-08-14T07:59:46;100845.44;;;27.28;45.04
68230;BME280;55048;52.220;5.160;2022-08-14T08:02:14;100828.25;;;27.27;45.06
68230;BME280;55048;52.220;5.160;2022-08-14T08:04:43;100846.91;;;27.53;44.00
68230;BME280;55048;52.220;5.160;2022-08-14T08:07:09;100851.56;;;27.68;43.99
68230;BME280;55048;52.220;5.160;2022-08-14T08:09:35;100865.72;;;27.86;44.42
68230;BME280;55048;52.220;5.160;2022-08-14T08:12:01;100868.69;;;27.97;43.56
68230;BME280;55048;52.220;5.160;2022-08-14T08:14:27;100856.97;;;27.96;43.53
68230;BME280;55048;52.220;5.160;2022-08-14T08:16:55;100834.69;;;27.94;43.27
68230;BME280;55048;52.220;5.160;2022-08-14T08:19:21;100850.69;;;28.12;43.02
68230;BME280;55048;52.220;5.160;2022-08-14T08:21:46;100817.22;;;27.99;43.58
68230;BME280;55048;52.220;5.160;2022-08-14T08:24:12;100852.63;;;28.27;43.24
68230;BME280;55048;52.220;5.160;2022-08-14T08:26:37;100861.59;;;28.43;42.66
68230;BME280;55048;52.220;5.160;2022-08-14T08:29:03;100828.78;;;28.43;42.46
68230;BME280;55048;52.220;5.160;2022-08-14T08:31:28;100851.66;;;28.70;42.13
68230;BME280;55048;52.220;5.160;2022-08-14T08:33:55;100833.72;;;28.73;42.13
68230;BME280;55048;52.220;5.160;2022-08-14T08:36:22;100841.22;;;28.95;42.17
68230;BME280;55048;52.220;5.160;2022-08-14T08:38:48;100834.09;;;29.10;41.63
68230;BME280;55048;52.220;5.160;2022-08-14T08:41:13;100809.59;;;28.98;41.69
68230;BME280;55048;52.220;5.160;2022-08-14T08:43:40;100814.50;;;29.08;41.96
68230;BME280;55048;52.220;5.160;2022-08-14T08:46:07;100821.47;;;29.25;41.50
68230;BME280;55048;52.220;5.160;2022-08-14T08:51:23;100824.75;;;29.34;40.68
68230;BME280;55048;52.220;5.160;2022-08-14T08:54:10;100837.81;;;29.64;41.03
68230;BME280;55048;52.220;5.160;2022-08-14T08:59:30;100806.16;;;29.66;41.02
68230;BME280;55048;52.220;5.160;2022-08-14T09:02:03;100852.22;;;30.07;40.84
68230;BME280;55048;52.220;5.160;2022-08-14T09:04:36;100844.78;;;30.07;40.90
68230;BME280;55048;52.220;5.160;2022-08-14T09:07:05;100827.84;;;30.02;40.42
68230;BME280;55048;52.220;5.160;2022-08-14T09:09:32;100818.50;;;30.06;40.35
68230;BME280;55048;52.220;5.160;2022-08-14T09:12:00;100798.66;;;30.13;40.81
68230;BME280;55048;52.220;5.160;2022-08-14T09:14:29;100824.09;;;30.40;39.29
68230;BME280;55048;52.220;5.160;2022-08-14T09:16:56;100818.25;;;30.41;39.63
68230;BME280;55048;52.220;5.160;2022-08-14T09:19:22;100826.22;;;30.50;39.36
68230;BME280;55048;52.220;5.160;2022-08-14T09:21:47;100804.91;;;30.40;38.98
68230;BME280;55048;52.220;5.160;2022-08-14T09:24:13;100825.63;;;30.64;39.01
68230;BME280;55048;52.220;5.160;2022-08-14T09:26:40;100796.84;;;30.54;38.31
68230;BME280;55048;52.220;5.160;2022-08-14T09:29:07;100798.56;;;30.66;38.11
68230;BME280;55048;52.220;5.160;2022-08-14T09:31:34;100827.59;;;30.97;37.96
68230;BME280;55048;52.220;5.160;2022-08-14T09:34:35;100796.47;;;30.86;38.06
68230;BME280;55048;52.220;5.160;2022-08-14T09:39:58;100802.91;;;31.00;37.34
68230;BME280;55048;52.220;5.160;2022-08-14T09:45:34;100795.44;;;31.35;37.47
68230;BME280;55048;52.220;5.160;2022-08-14T09:48:01;100762.31;;;31.24;36.67
68230;BME280;55048;52.220;5.160;2022-08-14T09:50:31;100793.22;;;31.51;36.45
68230;BME280;55048;52.220;5.160;2022-08-14T09:53:05;100783.06;;;31.59;36.55
68230;BME280;55048;52.220;5.160;2022-08-14T09:55:34;100785.97;;;31.77;35.86
68230;BME280;55048;52.220;5.160;2022-08-14T09:58:13;100779.25;;;31.74;35.31
68230;BME280;55048;52.220;5.160;2022-08-14T10:00:46;100768.34;;;31.85;35.76
68230;BME280;55048;52.220;5.160;2022-08-14T10:03:23;100775.50;;;31.96;35.49
68230;BME280;55048;52.220;5.160;2022-08-14T10:05:48;100747.59;;;31.94;35.36
68230;BME280;55048;52.220;5.160;2022-08-14T10:08:19;100756.63;;;31.91;36.04
68230;BME280;55048;52.220;5.160;2022-08-14T10:10:45;100762.66;;;32.22;35.66
68230;BME280;55048;52.220;5.160;2022-08-14T10:13:25;100754.84;;;32.31;35.18
68230;BME280;55048;52.220;5.160;2022-08-14T10:15:56;100744.72;;;32.42;35.07
68230;BME280;55048;52.220;5.160;2022-08-14T10:18:25;100743.56;;;32.54;35.27
68230;BME280;55048;52.220;5.160;2022-08-14T10:20:57;100751.84;;;32.61;35.59
68230;BME280;55048;52.220;5.160;2022-08-14T10:23:25;100752.63;;;32.62;34.76
68230;BME280;55048;52.220;5.160;2022-08-14T10:26:05;100737.28;;;32.57;33.79
68230;BME280;55048;52.220;5.160;2022-08-14T10:28:44;100738.13;;;32.75;34.03
68230;BME280;55048;52.220;5.160;2022-08-14T10:33:41;100733.06;;;32.99;33.50
68230;BME280;55048;52.220;5.160;2022-08-14T10:36:06;100721.25;;;32.95;33.48
68230;BME280;55048;52.220;5.160;2022-08-14T10:38:34;100706.66;;;32.84;33.27
68230;BME280;55048;52.220;5.160;2022-08-14T10:41:13;100716.94;;;32.97;34.18
68230;BME280;55048;52.220;5.160;2022-08-14T10:43:41;100716.16;;;33.11;33.45
68230;BME280;55048;52.220;5.160;2022-08-14T10:46:15;100723.25;;;33.23;32.99
68230;BME280;55048;52.220;5.160;2022-08-14T10:48:42;100723.63;;;33.32;32.59
68230;BME280;55048;52.220;5.160;2022-08-14T10:51:26;100703.53;;;33.24;32.72
68230;BME280;55048;52.220;5.160;2022-08-14T10:53:56;100699.22;;;33.31;32.76
68230;BME280;55048;52.220;5.160;2022-08-14T10:56:32;100702.78;;;33.35;33.04
68230;BME280;55048;52.220;5.160;2022-08-14T10:59:04;100703.53;;;33.42;32.15
68230;BME280;55048;52.220;5.160;2022-08-14T11:01:31;100684.25;;;33.28;32.07
68230;BME280;55048;52.220;5.160;2022-08-14T11:03:57;100689.38;;;33.15;32.24
68230;BME280;55048;52.220;5.160;2022-08-14T11:06:22;100676.78;;;33.11;31.81
68230;BME280;55048;52.220;5.160;2022-08-14T11:08:48;100695.28;;;33.24;32.02
68230;BME280;55048;52.220;5.160;2022-08-14T11:11:14;100696.88;;;33.47;30.78
68230;BME280;55048;52.220;5.160;2022-08-14T11:13:42;100695.72;;;33.44;30.09
68230;BME280;55048;52.220;5.160;2022-08-14T11:16:12;100663.00;;;33.46;30.98
68230;BME280;55048;52.220;5.160;2022-08-14T11:19:02;100598.84;;;33.10;29.80
68230;BME280;55048;52.220;5.160;2022-08-14T11:21:28;100665.34;;;33.48;29.41
68230;BME280;55048;52.220;5.160;2022-08-14T11:23:54;100684.66;;;33.62;29.90
68230;BME280;55048;52.220;5.160;2022-08-14T11:26:23;100679.53;;;33.54;29.78
68230;BME280;55048;52.220;5.160;2022-08-14T11:28:52;100642.16;;;33.06;30.17
68230;BME280;55048;52.220;5.160;2022-08-14T11:31:21;100657.09;;;33.30;30.30
68230;BME280;55048;52.220;5.160;2022-08-14T11:33:52;100683.06;;;33.65;30.97
68230;BME280;55048;52.220;5.160;2022-08-14T11:36:23;100669.63;;;33.81;29.91
68230;BME280;55048;52.220;5.160;2022-08-14T11:38:52;100669.22;;;33.83;28.99
68230;BME280;55048;52.220;5.160;2022-08-14T11:41:18;100655.41;;;33.86;28.88
68230;BME280;55048;52.220;5.160;2022-08-14T11:43:46;100679.75;;;34.13;28.44
68230;BME280;55048;52.220;5.160;2022-08-14T11:46:12;100649.81;;;34.15;28.46
68230;BME280;55048;52.220;5.160;2022-08-14T11:48:47;100644.28;;;34.11;28.04
68230;BME280;55048;52.220;5.160;2022-08-14T11:51:16;100619.56;;;33.75;27.70
68230;BME280;55048;52.220;5.160;2022-08-14T11:53:42;100672.81;;;33.69;28.36
68230;BME280;55048;52.220;5.160;2022-08-14T11:56:07;100594.13;;;32.75;28.66
68230;BME280;55048;52.220;5.160;2022-08-14T11:58:35;100642.94;;;33.03;29.21
68230;BME280;55048;52.220;5.160;2022-08-14T12:01:06;100667.75;;;33.03;28.85
68230;BME280;55048;52.220;5.160;2022-08-14T12:06:16;100663.75;;;32.72;29.54
68230;BME280;55048;52.220;5.160;2022-08-14T12:08:42;100650.34;;;32.49;29.23
68230;BME280;55048;52.220;5.160;2022-08-14T12:11:12;100662.56;;;32.52;29.07
68230;BME280;55048;52.220;5.160;2022-08-14T12:13:41;100632.94;;;32.20;28.89
68230;BME280;55048;52.220;5.160;2022-08-14T12:16:10;100648.69;;;32.30;29.24
68230;BME280;55048;52.220;5.160;2022-08-14T12:18:38;100631.78;;;32.24;29.24
68230;BME280;55048;52.220;5.160;2022-08-14T12:23:36;100613.28;;;32.11;29.62
68230;BME280;55048;52.220;5.160;2022-08-14T12:26:09;100638.09;;;32.36;29.01
68230;BME280;55048;52.220;5.160;2022-08-14T12:28:38;100629.84;;;32.29;29.37
68230;BME280;55048;52.220;5.160;2022-08-14T12:31:12;100633.78;;;32.28;29.09
68230;BME280;55048;52.220;5.160;2022-08-14T12:33:41;100629.84;;;32.29;28.94
68230;BME280;55048;52.220;5.160;2022-08-14T12:36:08;100621.66;;;32.57;28.71
68230;BME280;55048;52.220;5.160;2022-08-14T12:38:42;100602.78;;;32.81;28.46
68230;BME280;55048;52.220;5.160;2022-08-14T12:41:10;100614.59;;;32.88;28.19
68230;BME280;55048;52.220;5.160;2022-08-14T12:48:53;100588.56;;;33.50;27.59
68230;BME280;55048;52.220;5.160;2022-08-14T12:51:21;100592.38;;;33.81;27.15
68230;BME280;55048;52.220;5.160;2022-08-14T12:53:47;100587.97;;;34.05;26.44
68230;BME280;55048;52.220;5.160;2022-08-14T12:56:18;100578.75;;;34.22;26.52
68230;BME280;55048;52.220;5.160;2022-08-14T12:58:52;100584.34;;;34.15;26.93
68230;BME280;55048;52.220;5.160;2022-08-14T13:01:26;100570.69;;;33.83;28.57
68230;BME280;55048;52.220;5.160;2022-08-14T13:06:36;100578.69;;;33.56;27.92
68230;BME280;55048;52.220;5.160;2022-08-14T13:09:03;100560.25;;;33.28;29.04
68230;BME280;55048;52.220;5.160;2022-08-14T13:14:02;100554.38;;;33.01;28.19
68230;BME280;55048;52.220;5.160;2022-08-14T13:16:28;100565.03;;;32.95;28.52
68230;BME280;55048;52.220;5.160;2022-08-14T13:18:55;100574.84;;;32.96;28.21
68230;BME280;55048;52.220;5.160;2022-08-14T13:21:23;100553.63;;;32.79;28.51
68230;BME280;55048;52.220;5.160;2022-08-14T13:23:50;100544.19;;;32.62;28.91
68230;BME280;55048;52.220;5.160;2022-08-14T13:26:17;100553.63;;;32.61;29.21
68230;BME280;55048;52.220;5.160;2022-08-14T13:28:43;100507.97;;;32.35;29.92